sensor_id;sensor_type;location;lat;lon;timestamp;temperature;humidity
4518;DHT22;2271;49.464;11.070;2023-10-13T00:01:20;17.40;99.90
4518;DHT22;2271;49.464;11.070;2023-10-13T00:03:46;17.40;99.90
4518;DHT22;2271;49.464;11.070;2023-10-13T00:06:11;17.40;99.90
4518;DHT22;2271;49.464;11.070;2023-10-13T00:08:37;17.40;99.90
4518;DHT22;2271;49.464;11.070;2023-10-13T00:11:05;17.40;99.90
4518;DHT22;2271;49.464;11.070;2023-10-13T00:13:31;17.30;99.90
4518;DHT22;2271;49.464;11.070;2023-10-13T00:16:21;17.40;99.90
4518;DHT22;2271;49.464;11.070;2023-10-13T00:18:48;17.30;99.90
4518;DHT22;2271;49.464;11.070;2023-10-13T00:21:15;17.30;99.90
4518;DHT22;2271;49.464;11.070;2023-10-13T00:23:46;17.30;99.90
4518;DHT22;2271;49.464;11.070;2023-10-13T00:26:25;17.30;99.90
4518;DHT22;2271;49.464;11.070;2023-10-13T00:29:00;17.30;99.90
4518;DHT22;2271;49.464;11.070;2023-10-13T00:31:32;17.30;99.90
4518;DHT22;2271;49.464;11.070;2023-10-13T00:34:02;17.40;99.90
4518;DHT22;2271;49.464;11.070;2023-10-13T00:36:38;17.30;99.90
4518;DHT22;2271;49.464;11.070;2023-10-13T00:39:17;17.30;99.90
4518;DHT22;2271;49.464;11.070;2023-10-13T00:41:43;17.40;99.90
4518;DHT22;2271;49.464;11.070;2023-10-13T00:44:19;17.30;99.90
4518;DHT22;2271;49.464;11.070;2023-10-13T00:46:54;17.30;99.90
4518;DHT22;2271;49.464;11.070;2023-10-13T00:49:22;17.30;99.90
4518;DHT22;2271;49.464;11.070;2023-10-13T00:51:49;17.30;99.90
4518;DHT22;2271;49.464;11.070;2023-10-13T00:54:17;17.30;99.90
4518;DHT22;2271;49.464;11.070;2023-10-13T00:56:45;17.30;99.90
4518;DHT22;2271;49.464;11.070;2023-10-13T00:59:23;17.30;99.90
4518;DHT22;2271;49.464;11.070;2023-10-13T01:01:51;17.30;99.90
4518;DHT22;2271;49.464;11.070;2023-10-13T01:04:21;17.30;99.90
4518;DHT22;2271;49.464;11.070;2023-10-13T01:06:52;17.30;99.90
4518;DHT22;2271;49.464;11.070;2023-10-13T01:09:18;17.30;99.90
4518;DHT22;2271;49.464;11.070;2023-10-13T01:11:47;17.30;99.90
4518;DHT22;2271;49.464;11.070;2023-10-13T01:14:17;17.30;99.90
4518;DHT22;2271;49.464;11.070;2023-10-13T01:16:48;17.30;99.90
4518;DHT22;2271;49.464;11.070;2023-10-13T01:19:19;17.30;99.90
4518;DHT22;2271;49.464;11.070;2023-10-13T01:21:50;17.30;99.90
4518;DHT22;2271;49.464;11.070;2023-10-13T01:24:20;17.20;99.90
4518;DHT22;2271;49.464;11.070;2023-10-13T01:26:49;17.10;99.90
4518;DHT22;2271;49.464;11.070;2023-10-13T01:29:17;17.10;99.90
4518;DHT22;2271;49.464;11.070;2023-10-13T01:31:45;17.00;99.90
4518;DHT22;2271;49.464;11.070;2023-10-13T01:34:18;16.90;99.90
4518;DHT22;2271;49.464;11.070;2023-10-13T01:36:54;16.90;99.90
4518;DHT22;2271;49.464;11.070;2023-10-13T01:39:21;16.90;99.90
4518;DHT22;2271;49.464;11.070;2023-10-13T01:41:47;16.80;99.90
4518;DHT22;2271;49.464;11.070;2023-10-13T01:44:29;16.80;99.90
4518;DHT22;2271;49.464;11.070;2023-10-13T01:46:59;16.80;99.90
4518;DHT22;2271;49.464;11.070;2023-10-13T01:49:31;16.70;99.90
4518;DHT22;2271;49.464;11.070;2023-10-13T01:52:07;16.70;99.90
4518;DHT22;2271;49.464;11.070;2023-10-13T01:54:33;16.70;99.90
4518;DHT22;2271;49.464;11.070;2023-10-13T01:56:59;16.70;99.90
4518;DHT22;2271;49.464;11.070;2023-10-13T01:59:25;16.70;99.90
4518;DHT22;2271;49.464;11.070;2023-10-13T02:01:52;16.70;99.90
4518;DHT22;2271;49.464;11.070;2023-10-13T02:04:21;16.80;99.90
4518;DHT22;2271;49.464;11.070;2023-10-13T02:06:47;16.70;99.90
4518;DHT22;2271;49.464;11.070;2023-10-13T02:09:12;16.70;99.90
4518;DHT22;2271;49.464;11.070;2023-10-13T02:11:42;16.80;99.90
4518;DHT22;2271;49.464;11.070;2023-10-13T02:14:10;16.80;99.90
4518;DHT22;2271;49.464;11.070;2023-10-13T02:16:42;16.80;99.90
4518;DHT22;2271;49.464;11.070;2023-10-13T02:19:08;16.80;99.90
4518;DHT22;2271;49.464;11.070;2023-10-13T02:21:35;16.80;99.90
4518;DHT22;2271;49.464;11.070;2023-10-13T02:24:10;16.80;99.90
4518;DHT22;2271;49.464;11.070;2023-10-13T02:26:44;16.80;99.90
4518;DHT22;2271;49.464;11.070;2023-10-13T02:29:09;16.80;99.90
4518;DHT22;2271;49.464;11.070;2023-10-13T02:31:40;16.90;99.90
4518;DHT22;2271;49.464;11.070;2023-10-13T02:34:06;16.90;99.90
4518;DHT22;2271;49.464;11.070;2023-10-13T02:36:38;16.80;99.90
4518;DHT22;2271;49.464;11.070;2023-10-13T02:39:14;16.80;99.90
4518;DHT22;2271;49.464;11.070;2023-10-13T02:41:41;16.90;99.90
4518;DHT22;2271;49.464;11.070;2023-10-13T02:44:13;16.90;99.90
4518;DHT22;2271;49.464;11.070;2023-10-13T02:46:45;16.90;99.90
4518;DHT22;2271;49.464;11.070;2023-10-13T02:49:15;16.90;99.90
4518;DHT22;2271;49.464;11.070;2023-10-13T02:51:45;16.90;99.90
4518;DHT22;2271;49.464;11.070;2023-10-13T02:54:10;16.90;99.90
4518;DHT22;2271;49.464;11.070;2023-10-13T02:56:44;16.90;99.90
4518;DHT22;2271;49.464;11.070;2023-10-13T02:59:16;16.80;99.90
4518;DHT22;2271;49.464;11.070;2023-10-13T03:01:45;16.80;99.90
4518;DHT22;2271;49.464;11.070;2023-10-13T03:04:10;16.80;99.90
4518;DHT22;2271;49.464;11.070;2023-10-13T03:06:38;16.80;99.90
4518;DHT22;2271;49.464;11.070;2023-10-13T03:09:08;16.70;99.90
4518;DHT22;2271;49.464;11.070;2023-10-13T03:11:43;16.70;99.90
4518;DHT22;2271;49.464;11.070;2023-10-13T03:14:16;16.60;99.90
4518;DHT22;2271;49.464;11.070;2023-10-13T03:17:00;16.60;99.90
4518;DHT22;2271;49.464;11.070;2023-10-13T03:19:29;16.60;99.90
4518;DHT22;2271;49.464;11.070;2023-10-13T03:22:03;16.60;99.90
4518;DHT22;2271;49.464;11.070;2023-10-13T03:24:35;16.60;99.90
4518;DHT22;2271;49.464;11.070;2023-10-13T03:27:04;16.60;99.90
4518;DHT22;2271;49.464;11.070;2023-10-13T03:29:44;16.60;99.90
4518;DHT22;2271;49.464;11.070;2023-10-13T03:32:10;16.60;99.90
4518;DHT22;2271;49.464;11.070;2023-10-13T03:34:46;16.60;99.90
4518;DHT22;2271;49.464;11.070;2023-10-13T03:37:27;16.60;99.90
4518;DHT22;2271;49.464;11.070;2023-10-13T03:40:21;16.60;99.90
4518;DHT22;2271;49.464;11.070;2023-10-13T03:42:47;16.60;99.90
4518;DHT22;2271;49.464;11.070;2023-10-13T03:45:36;16.60;99.90
4518;DHT22;2271;49.464;11.070;2023-10-13T03:48:18;16.60;99.90
4518;DHT22;2271;49.464;11.070;2023-10-13T03:50:51;16.60;99.90
4518;DHT22;2271;49.464;11.070;2023-10-13T03:53:41;16.60;99.90
4518;DHT22;2271;49.464;11.070;2023-10-13T03:56:27;16.60;99.90
4518;DHT22;2271;49.464;11.070;2023-10-13T03:58:57;16.60;99.90
4518;DHT22;2271;49.464;11.070;2023-10-13T04:01:36;16.60;99.90
4518;DHT22;2271;49.464;11.070;2023-10-13T04:04:17;16.60;99.90
4518;DHT22;2271;49.464;11.070;2023-10-13T04:07:03;16.60;99.90
4518;DHT22;2271;49.464;11.070;2023-10-13T04:09:38;16.50;99.90
4518;DHT22;2271;49.464;11.070;2023-10-13T04:12:13;16.50;99.90
4518;DHT22;2271;49.464;11.070;2023-10-13T04:15:05;16.50;99.90
4518;DHT22;2271;49.464;11.070;2023-10-13T04:17:32;16.50;99.90
4518;DHT22;2271;49.464;11.070;2023-10-13T04:20:06;16.50;99.90
4518;DHT22;2271;49.464;11.070;2023-10-13T04:28:13;16.50;99.90
4518;DHT22;2271;49.464;11.070;2023-10-13T04:36:09;16.60;99.90
4518;DHT22;2271;49.464;11.070;2023-10-13T04:38:55;16.60;99.90
4518;DHT22;2271;49.464;11.070;2023-10-13T04:41:23;16.60;99.90
4518;DHT22;2271;49.464;11.070;2023-10-13T04:43:49;16.60;99.90
4518;DHT22;2271;49.464;11.070;2023-10-13T04:46:23;16.60;99.90
4518;DHT22;2271;49.464;11.070;2023-10-13T04:49:04;16.60;99.90
4518;DHT22;2271;49.464;11.070;2023-10-13T04:51:37;16.60;99.90
4518;DHT22;2271;49.464;11.070;2023-10-13T04:54:21;16.60;99.90
4518;DHT22;2271;49.464;11.070;2023-10-13T04:57:00;16.60;99.90
4518;DHT22;2271;49.464;11.070;2023-10-13T04:59:46;16.70;99.90
4518;DHT22;2271;49.464;11.070;2023-10-13T05:02:31;16.70;99.90
4518;DHT22;2271;49.464;11.070;2023-10-13T05:05:04;16.70;99.90
4518;DHT22;2271;49.464;11.070;2023-10-13T05:07:48;16.60;99.90
4518;DHT22;2271;49.464;11.070;2023-10-13T05:10:34;16.70;99.90
4518;DHT22;2271;49.464;11.070;2023-10-13T05:13:18;16.60;99.90
4518;DHT22;2271;49.464;11.070;2023-10-13T05:16:03;16.60;99.90
4518;DHT22;2271;49.464;11.070;2023-10-13T05:18:47;16.50;99.90
4518;DHT22;2271;49.464;11.070;2023-10-13T05:21:31;16.40;99.90
4518;DHT22;2271;49.464;11.070;2023-10-13T05:24:15;16.40;99.90
4518;DHT22;2271;49.464;11.070;2023-10-13T05:26:59;16.40;99.90
4518;DHT22;2271;49.464;11.070;2023-10-13T05:29:45;16.40;99.90
4518;DHT22;2271;49.464;11.070;2023-10-13T05:32:29;16.30;99.90
4518;DHT22;2271;49.464;11.070;2023-10-13T05:35:14;16.40;99.90
4518;DHT22;2271;49.464;11.070;2023-10-13T05:37:59;16.40;99.90
4518;DHT22;2271;49.464;11.070;2023-10-13T05:40:59;16.50;99.90
4518;DHT22;2271;49.464;11.070;2023-10-13T05:43:43;16.50;99.90
4518;DHT22;2271;49.464;11.070;2023-10-13T05:46:28;16.50;99.90
4518;DHT22;2271;49.464;11.070;2023-10-13T05:49:07;16.50;99.90
4518;DHT22;2271;49.464;11.070;2023-10-13T05:51:43;16.50;99.90
4518;DHT22;2271;49.464;11.070;2023-10-13T05:54:13;16.60;99.90
4518;DHT22;2271;49.464;11.070;2023-10-13T05:56:49;16.60;99.90
4518;DHT22;2271;49.464;11.070;2023-10-13T05:59:36;16.60;99.90
4518;DHT22;2271;49.464;11.070;2023-10-13T06:02:21;16.70;99.90
4518;DHT22;2271;49.464;11.070;2023-10-13T06:05:07;16.70;99.90
4518;DHT22;2271;49.464;11.070;2023-10-13T06:07:52;16.80;99.90
4518;DHT22;2271;49.464;11.070;2023-10-13T06:10:37;17.10;99.90
4518;DHT22;2271;49.464;11.070;2023-10-13T06:13:22;17.50;99.90
4518;DHT22;2271;49.464;11.070;2023-10-13T06:16:16;18.50;99.90
4518;DHT22;2271;49.464;11.070;2023-10-13T06:19:01;19.10;99.90
4518;DHT22;2271;49.464;11.070;2023-10-13T06:21:46;19.50;99.90
4518;DHT22;2271;49.464;11.070;2023-10-13T06:24:30;18.80;99.90
4518;DHT22;2271;49.464;11.070;2023-10-13T06:27:15;18.30;99.90
4518;DHT22;2271;49.464;11.070;2023-10-13T06:29:59;18.00;99.90
4518;DHT22;2271;49.464;11.070;2023-10-13T06:32:26;17.80;99.90
4518;DHT22;2271;49.464;11.070;2023-10-13T06:34:56;17.60;99.90
4518;DHT22;2271;49.464;11.070;2023-10-13T06:37:33;17.60;99.90
4518;DHT22;2271;49.464;11.070;2023-10-13T06:40:08;17.50;99.90
4518;DHT22;2271;49.464;11.070;2023-10-13T06:42:46;17.40;99.90
4518;DHT22;2271;49.464;11.070;2023-10-13T06:45:12;17.30;99.90
4518;DHT22;2271;49.464;11.070;2023-10-13T06:47:38;17.40;99.90
4518;DHT22;2271;49.464;11.070;2023-10-13T06:50:11;17.50;99.90
4518;DHT22;2271;49.464;11.070;2023-10-13T06:52:44;17.60;99.90
4518;DHT22;2271;49.464;11.070;2023-10-13T06:55:12;17.50;99.90
4518;DHT22;2271;49.464;11.070;2023-10-13T06:57:46;17.50;99.90
4518;DHT22;2271;49.464;11.070;2023-10-13T07:00:12;17.50;99.90
4518;DHT22;2271;49.464;11.070;2023-10-13T07:02:55;17.50;99.90
4518;DHT22;2271;49.464;11.070;2023-10-13T07:05:37;17.50;99.90
4518;DHT22;2271;49.464;11.070;2023-10-13T07:08:09;17.50;99.90
4518;DHT22;2271;49.464;11.070;2023-10-13T07:10:35;17.50;99.90
4518;DHT22;2271;49.464;11.070;2023-10-13T07:13:14;17.50;99.90
4518;DHT22;2271;49.464;11.070;2023-10-13T07:15:40;17.50;99.90
4518;DHT22;2271;49.464;11.070;2023-10-13T07:18:16;17.50;99.90
4518;DHT22;2271;49.464;11.070;2023-10-13T07:20:48;17.50;99.90
4518;DHT22;2271;49.464;11.070;2023-10-13T07:23:14;17.60;99.90
4518;DHT22;2271;49.464;11.070;2023-10-13T07:25:56;17.70;99.90
4518;DHT22;2271;49.464;11.070;2023-10-13T07:28:29;17.80;99.90
4518;DHT22;2271;49.464;11.070;2023-10-13T07:31:15;17.90;99.90
4518;DHT22;2271;49.464;11.070;2023-10-13T07:33:41;17.90;99.90
4518;DHT22;2271;49.464;11.070;2023-10-13T07:36:08;17.90;99.90
4518;DHT22;2271;49.464;11.070;2023-10-13T07:38:53;17.90;99.90
4518;DHT22;2271;49.464;11.070;2023-10-13T07:41:38;18.00;99.90
4518;DHT22;2271;49.464;11.070;2023-10-13T07:44:07;17.90;99.90
4518;DHT22;2271;49.464;11.070;2023-10-13T07:46:32;18.00;99.90
4518;DHT22;2271;49.464;11.070;2023-10-13T07:49:00;18.00;99.90
4518;DHT22;2271;49.464;11.070;2023-10-13T07:51:35;18.00;99.90
4518;DHT22;2271;49.464;11.070;2023-10-13T07:54:15;18.00;99.90
4518;DHT22;2271;49.464;11.070;2023-10-13T07:56:47;18.00;99.90
4518;DHT22;2271;49.464;11.070;2023-10-13T07:59:13;18.00;99.90
4518;DHT22;2271;49.464;11.070;2023-10-13T08:01:40;18.10;99.90
4518;DHT22;2271;49.464;11.070;2023-10-13T08:04:14;18.00;99.90
4518;DHT22;2271;49.464;11.070;2023-10-13T08:06:48;18.00;99.90
4518;DHT22;2271;49.464;11.070;2023-10-13T08:09:14;18.00;99.90
4518;DHT22;2271;49.464;11.070;2023-10-13T08:12:06;18.00;99.90
4518;DHT22;2271;49.464;11.070;2023-10-13T08:14:36;18.10;99.90
4518;DHT22;2271;49.464;11.070;2023-10-13T08:17:04;18.20;99.90
4518;DHT22;2271;49.464;11.070;2023-10-13T08:19:33;18.40;99.90
4518;DHT22;2271;49.464;11.070;2023-10-13T08:22:06;18.40;99.90
4518;DHT22;2271;49.464;11.070;2023-10-13T08:24:40;18.40;99.90
4518;DHT22;2271;49.464;11.070;2023-10-13T08:27:07;18.40;99.90
4518;DHT22;2271;49.464;11.070;2023-10-13T08:29:51;18.50;99.90
4518;DHT22;2271;49.464;11.070;2023-10-13T08:32:16;18.50;99.90
4518;DHT22;2271;49.464;11.070;2023-10-13T08:35:02;18.60;99.90
4518;DHT22;2271;49.464;11.070;2023-10-13T08:37:30;18.60;99.90
4518;DHT22;2271;49.464;11.070;2023-10-13T08:39:59;18.50;99.90
4518;DHT22;2271;49.464;11.070;2023-10-13T08:42:33;18.50;99.90
4518;DHT22;2271;49.464;11.070;2023-10-13T08:45:15;18.60;99.90
4518;DHT22;2271;49.464;11.070;2023-10-13T08:47:57;18.70;99.90
4518;DHT22;2271;49.464;11.070;2023-10-13T08:50:48;18.70;99.90
4518;DHT22;2271;49.464;11.070;2023-10-13T08:55:56;18.70;99.90
4518;DHT22;2271;49.464;11.070;2023-10-13T08:58:33;18.80;99.90
4518;DHT22;2271;49.464;11.070;2023-10-13T09:01:21;18.80;99.90
4518;DHT22;2271;49.464;11.070;2023-10-13T09:04:11;18.90;99.90
4518;DHT22;2271;49.464;11.070;2023-10-13T09:09:48;19.70;99.90
4518;DHT22;2271;49.464;11.070;2023-10-13T09:12:28;20.50;99.90
4518;DHT22;2271;49.464;11.070;2023-10-13T09:14:58;21.00;99.90
4518;DHT22;2271;49.464;11.070;2023-10-13T09:17:25;20.90;99.90
4518;DHT22;2271;49.464;11.070;2023-10-13T09:20:02;20.60;99.90
4518;DHT22;2271;49.464;11.070;2023-10-13T09:22:52;20.40;99.90
4518;DHT22;2271;49.464;11.070;2023-10-13T09:28:13;20.10;99.90
4518;DHT22;2271;49.464;11.070;2023-10-13T09:30:48;20.00;99.90
4518;DHT22;2271;49.464;11.070;2023-10-13T09:33:20;20.20;99.90
4518;DHT22;2271;49.464;11.070;2023-10-13T09:35:54;20.40;99.90
4518;DHT22;2271;49.464;11.070;2023-10-13T09:38:20;20.80;99.90
4518;DHT22;2271;49.464;11.070;2023-10-13T09:40:46;21.10;99.90
4518;DHT22;2271;49.464;11.070;2023-10-13T09:43:18;21.20;99.90
4518;DHT22;2271;49.464;11.070;2023-10-13T09:45:49;21.00;99.90
4518;DHT22;2271;49.464;11.070;2023-10-13T09:48:46;20.80;99.90
4518;DHT22;2271;49.464;11.070;2023-10-13T09:51:21;20.70;99.90
4518;DHT22;2271;49.464;11.070;2023-10-13T09:56:37;20.50;99.90
4518;DHT22;2271;49.464;11.070;2023-10-13T09:59:22;20.60;99.90
4518;DHT22;2271;49.464;11.070;2023-10-13T10:01:51;20.60;99.90
4518;DHT22;2271;49.464;11.070;2023-10-13T10:04:23;20.70;99.90
4518;DHT22;2271;49.464;11.070;2023-10-13T10:06:56;20.80;99.90
4518;DHT22;2271;49.464;11.070;2023-10-13T10:09:32;21.10;99.90
4518;DHT22;2271;49.464;11.070;2023-10-13T10:15:09;21.50;99.90
4518;DHT22;2271;49.464;11.070;2023-10-13T10:17:43;21.60;99.90
4518;DHT22;2271;49.464;11.070;2023-10-13T10:20:09;21.70;99.90
4518;DHT22;2271;49.464;11.070;2023-10-13T10:22:41;21.90;99.90
4518;DHT22;2271;49.464;11.070;2023-10-13T10:25:14;22.10;99.90
4518;DHT22;2271;49.464;11.070;2023-10-13T10:27:59;22.10;99.90
4518;DHT22;2271;49.464;11.070;2023-10-13T10:30:29;22.10;99.90
4518;DHT22;2271;49.464;11.070;2023-10-13T10:32:56;22.10;99.90
4518;DHT22;2271;49.464;11.070;2023-10-13T10:35:25;22.10;99.90
4518;DHT22;2271;49.464;11.070;2023-10-13T10:38:14;22.20;99.90
4518;DHT22;2271;49.464;11.070;2023-10-13T10:40:58;22.30;99.90
4518;DHT22;2271;49.464;11.070;2023-10-13T10:43:28;22.30;99.90
4518;DHT22;2271;49.464;11.070;2023-10-13T10:45:56;22.40;99.90
4518;DHT22;2271;49.464;11.070;2023-10-13T10:48:27;22.60;99.90
4518;DHT22;2271;49.464;11.070;2023-10-13T10:51:12;22.90;99.90
4518;DHT22;2271;49.464;11.070;2023-10-13T10:53:47;23.30;99.90
4518;DHT22;2271;49.464;11.070;2023-10-13T10:56:15;23.60;99.90
4518;DHT22;2271;49.464;11.070;2023-10-13T10:58:59;23.90;99.90
4518;DHT22;2271;49.464;11.070;2023-10-13T11:01:27;24.20;99.90
4518;DHT22;2271;49.464;11.070;2023-10-13T11:06:26;24.50;99.90
4518;DHT22;2271;49.464;11.070;2023-10-13T11:09:05;24.60;99.90
4518;DHT22;2271;49.464;11.070;2023-10-13T11:11:51;24.70;99.90
4518;DHT22;2271;49.464;11.070;2023-10-13T11:14:20;24.80;99.90
4518;DHT22;2271;49.464;11.070;2023-10-13T11:16:52;24.80;99.90
4518;DHT22;2271;49.464;11.070;2023-10-13T11:19:36;24.90;99.90
4518;DHT22;2271;49.464;11.070;2023-10-13T11:22:17;25.00;99.90
4518;DHT22;2271;49.464;11.070;2023-10-13T11:24:59;25.00;99.90
4518;DHT22;2271;49.464;11.070;2023-10-13T11:27:32;25.10;99.90
4518;DHT22;2271;49.464;11.070;2023-10-13T11:30:16;25.10;99.90
4518;DHT22;2271;49.464;11.070;2023-10-13T11:33:00;25.20;99.90
4518;DHT22;2271;49.464;11.070;2023-10-13T11:35:28;25.30;99.90
4518;DHT22;2271;49.464;11.070;2023-10-13T11:38:13;25.30;99.90
4518;DHT22;2271;49.464;11.070;2023-10-13T11:40:40;25.30;99.90
4518;DHT22;2271;49.464;11.070;2023-10-13T11:43:24;25.30;99.90
4518;DHT22;2271;49.464;11.070;2023-10-13T11:45:50;25.30;99.90
4518;DHT22;2271;49.464;11.070;2023-10-13T11:48:34;25.40;99.90
4518;DHT22;2271;49.464;11.070;2023-10-13T11:51:05;25.50;99.90
4518;DHT22;2271;49.464;11.070;2023-10-13T11:53:36;25.50;99.90
4518;DHT22;2271;49.464;11.070;2023-10-13T11:56:02;25.40;99.90
4518;DHT22;2271;49.464;11.070;2023-10-13T11:58:41;25.40;99.90
4518;DHT22;2271;49.464;11.070;2023-10-13T12:01:07;25.30;99.90
4518;DHT22;2271;49.464;11.070;2023-10-13T12:03:42;25.20;99.90
4518;DHT22;2271;49.464;11.070;2023-10-13T12:06:27;25.00;99.90
4518;DHT22;2271;49.464;11.070;2023-10-13T12:09:04;24.80;99.90
4518;DHT22;2271;49.464;11.070;2023-10-13T12:11:46;24.80;99.90
4518;DHT22;2271;49.464;11.070;2023-10-13T12:14:13;24.80;99.90
4518;DHT22;2271;49.464;11.070;2023-10-13T12:19:23;25.10;99.90
4518;DHT22;2271;49.464;11.070;2023-10-13T12:21:54;25.40;99.90
4518;DHT22;2271;49.464;11.070;2023-10-13T12:24:24;25.50;99.90
4518;DHT22;2271;49.464;11.070;2023-10-13T12:27:06;25.60;99.90
4518;DHT22;2271;49.464;11.070;2023-10-13T12:29:53;25.60;99.90
4518;DHT22;2271;49.464;11.070;2023-10-13T12:32:21;25.60;99.90
4518;DHT22;2271;49.464;11.070;2023-10-13T12:34:56;25.60;99.90
4518;DHT22;2271;49.464;11.070;2023-10-13T12:37:31;25.60;99.90
4518;DHT22;2271;49.464;11.070;2023-10-13T12:40:07;25.60;99.90
4518;DHT22;2271;49.464;11.070;2023-10-13T12:42:52;25.40;99.90
4518;DHT22;2271;49.464;11.070;2023-10-13T12:45:44;25.20;99.90
4518;DHT22;2271;49.464;11.070;2023-10-13T12:48:29;25.00;99.90
4518;DHT22;2271;49.464;11.070;2023-10-13T12:51:14;24.80;99.90
4518;DHT22;2271;49.464;11.070;2023-10-13T12:53:51;24.60;99.90
4518;DHT22;2271;49.464;11.070;2023-10-13T12:56:17;24.50;99.90
4518;DHT22;2271;49.464;11.070;2023-10-13T12:58:43;24.40;99.90
4518;DHT22;2271;49.464;11.070;2023-10-13T13:01:24;24.40;99.90
4518;DHT22;2271;49.464;11.070;2023-10-13T13:03:51;24.40;99.90
4518;DHT22;2271;49.464;11.070;2023-10-13T13:06:25;24.40;99.90
4518;DHT22;2271;49.464;11.070;2023-10-13T13:08:56;24.50;99.90
4518;DHT22;2271;49.464;11.070;2023-10-13T13:11:22;24.50;99.90
4518;DHT22;2271;49.464;11.070;2023-10-13T13:13:48;24.60;99.90
4518;DHT22;2271;49.464;11.070;2023-10-13T13:16:14;24.80;99.90
4518;DHT22;2271;49.464;11.070;2023-10-13T13:18:40;24.90;99.90
4518;DHT22;2271;49.464;11.070;2023-10-13T13:21:08;25.00;99.90
4518;DHT22;2271;49.464;11.070;2023-10-13T13:23:37;25.30;99.90
4518;DHT22;2271;49.464;11.070;2023-10-13T13:26:05;25.40;99.90
4518;DHT22;2271;49.464;11.070;2023-10-13T13:28:41;25.50;99.90
4518;DHT22;2271;49.464;11.070;2023-10-13T13:31:08;25.50;99.90
4518;DHT22;2271;49.464;11.070;2023-10-13T13:33:34;25.60;99.90
4518;DHT22;2271;49.464;11.070;2023-10-13T13:36:04;25.70;99.90
4518;DHT22;2271;49.464;11.070;2023-10-13T13:38:30;25.70;99.90
4518;DHT22;2271;49.464;11.070;2023-10-13T13:40:58;25.90;99.90
4518;DHT22;2271;49.464;11.070;2023-10-13T13:43:24;25.90;99.90
4518;DHT22;2271;49.464;11.070;2023-10-13T13:46:08;25.90;99.90
4518;DHT22;2271;49.464;11.070;2023-10-13T13:48:37;26.00;99.90
4518;DHT22;2271;49.464;11.070;2023-10-13T13:51:05;26.10;99.90
4518;DHT22;2271;49.464;11.070;2023-10-13T13:53:38;26.00;99.90
4518;DHT22;2271;49.464;11.070;2023-10-13T13:56:08;25.90;99.90
4518;DHT22;2271;49.464;11.070;2023-10-13T13:58:33;25.90;99.90
4518;DHT22;2271;49.464;11.070;2023-10-13T14:01:03;25.90;99.90
4518;DHT22;2271;49.464;11.070;2023-10-13T14:03:41;26.00;99.90
4518;DHT22;2271;49.464;11.070;2023-10-13T14:06:21;26.00;99.90
4518;DHT22;2271;49.464;11.070;2023-10-13T14:08:54;25.90;99.90
4518;DHT22;2271;49.464;11.070;2023-10-13T14:11:26;25.90;99.90
4518;DHT22;2271;49.464;11.070;2023-10-13T14:14:08;25.90;99.90
4518;DHT22;2271;49.464;11.070;2023-10-13T14:16:52;25.90;99.90
4518;DHT22;2271;49.464;11.070;2023-10-13T14:19:19;25.90;99.90
4518;DHT22;2271;49.464;11.070;2023-10-13T14:21:52;25.80;99.90
4518;DHT22;2271;49.464;11.070;2023-10-13T14:24:21;25.80;99.90
4518;DHT22;2271;49.464;11.070;2023-10-13T14:26:57;25.70;99.90
4518;DHT22;2271;49.464;11.070;2023-10-13T14:29:33;25.70;99.90
4518;DHT22;2271;49.464;11.070;2023-10-13T14:31:59;25.70;99.90
4518;DHT22;2271;49.464;11.070;2023-10-13T14:34:25;25.70;99.90
4518;DHT22;2271;49.464;11.070;2023-10-13T14:36:52;25.60;99.90
4518;DHT22;2271;49.464;11.070;2023-10-13T14:39:19;25.70;99.90
4518;DHT22;2271;49.464;11.070;2023-10-13T14:41:46;25.50;99.90
4518;DHT22;2271;49.464;11.070;2023-10-13T14:44:14;25.40;99.90
4518;DHT22;2271;49.464;11.070;2023-10-13T14:46:39;25.20;99.90
4518;DHT22;2271;49.464;11.070;2023-10-13T14:49:06;25.10;99.90
4518;DHT22;2271;49.464;11.070;2023-10-13T14:51:32;25.00;99.90
4518;DHT22;2271;49.464;11.070;2023-10-13T14:53:58;24.90;99.90
4518;DHT22;2271;49.464;11.070;2023-10-13T14:56:29;24.80;99.90
4518;DHT22;2271;49.464;11.070;2023-10-13T14:58:55;24.70;99.90
4518;DHT22;2271;49.464;11.070;2023-10-13T15:01:22;24.60;99.90
4518;DHT22;2271;49.464;11.070;2023-10-13T15:03:51;24.60;99.90
4518;DHT22;2271;49.464;11.070;2023-10-13T15:06:25;24.60;99.90
4518;DHT22;2271;49.464;11.070;2023-10-13T15:08:55;24.50;99.90
4518;DHT22;2271;49.464;11.070;2023-10-13T15:11:22;24.50;99.90
4518;DHT22;2271;49.464;11.070;2023-10-13T15:13:54;24.40;99.90
4518;DHT22;2271;49.464;11.070;2023-10-13T15:16:25;24.40;99.90
4518;DHT22;2271;49.464;11.070;2023-10-13T15:18:52;24.40;99.90
4518;DHT22;2271;49.464;11.070;2023-10-13T15:21:25;24.40;99.90
4518;DHT22;2271;49.464;11.070;2023-10-13T15:24:01;24.40;99.90
4518;DHT22;2271;49.464;11.070;2023-10-13T15:26:39;24.40;99.90
4518;DHT22;2271;49.464;11.070;2023-10-13T15:29:10;24.40;99.90
4518;DHT22;2271;49.464;11.070;2023-10-13T15:31:38;24.40;99.90
4518;DHT22;2271;49.464;11.070;2023-10-13T15:34:11;24.40;99.90
4518;DHT22;2271;49.464;11.070;2023-10-13T15:36:41;24.40;99.90
4518;DHT22;2271;49.464;11.070;2023-10-13T15:39:11;24.40;99.90
4518;DHT22;2271;49.464;11.070;2023-10-13T15:41:37;24.30;99.90
4518;DHT22;2271;49.464;11.070;2023-10-13T15:44:10;24.30;99.90
4518;DHT22;2271;49.464;11.070;2023-10-13T15:46:37;24.20;99.90
4518;DHT22;2271;49.464;11.070;2023-10-13T15:49:03;24.30;99.90
4518;DHT22;2271;49.464;11.070;2023-10-13T15:51:32;24.20;99.90
4518;DHT22;2271;49.464;11.070;2023-10-13T15:54:07;24.20;99.90
4518;DHT22;2271;49.464;11.070;2023-10-13T15:56:45;24.20;99.90
4518;DHT22;2271;49.464;11.070;2023-10-13T15:59:11;24.10;99.90
4518;DHT22;2271;49.464;11.070;2023-10-13T16:01:38;24.00;99.90
4518;DHT22;2271;49.464;11.070;2023-10-13T16:04:07;23.90;99.90
4518;DHT22;2271;49.464;11.070;2023-10-13T16:06:40;23.90;99.90
4518;DHT22;2271;49.464;11.070;2023-10-13T16:09:07;23.90;99.90
4518;DHT22;2271;49.464;11.070;2023-10-13T16:11:49;23.80;99.90
4518;DHT22;2271;49.464;11.070;2023-10-13T16:14:15;23.80;99.90
4518;DHT22;2271;49.464;11.070;2023-10-13T16:16:44;23.80;99.90
4518;DHT22;2271;49.464;11.070;2023-10-13T16:19:10;23.70;99.90
4518;DHT22;2271;49.464;11.070;2023-10-13T16:21:36;23.70;99.90
4518;DHT22;2271;49.464;11.070;2023-10-13T16:24:05;23.70;99.90
4518;DHT22;2271;49.464;11.070;2023-10-13T16:26:31;23.60;99.90
4518;DHT22;2271;49.464;11.070;2023-10-13T16:28:57;23.60;99.90
4518;DHT22;2271;49.464;11.070;2023-10-13T16:31:24;23.60;99.90
4518;DHT22;2271;49.464;11.070;2023-10-13T16:33:53;23.60;99.90
4518;DHT22;2271;49.464;11.070;2023-10-13T16:36:21;23.50;99.90
4518;DHT22;2271;49.464;11.070;2023-10-13T16:38:48;23.40;99.90
4518;DHT22;2271;49.464;11.070;2023-10-13T16:41:13;23.30;99.90
4518;DHT22;2271;49.464;11.070;2023-10-13T16:43:40;23.30;99.90
4518;DHT22;2271;49.464;11.070;2023-10-13T16:46:13;23.30;99.90
4518;DHT22;2271;49.464;11.070;2023-10-13T16:48:41;23.30;99.90
4518;DHT22;2271;49.464;11.070;2023-10-13T16:51:08;23.20;99.90
4518;DHT22;2271;49.464;11.070;2023-10-13T16:53:43;23.20;99.90
4518;DHT22;2271;49.464;11.070;2023-10-13T16:56:21;23.10;99.90